createdAt,value
2022-08-11T16:12:46.939Z,37.97
2022-08-11T16:13:47.483Z,38.03
2022-08-11T16:14:49.424Z,38.45
2022-08-11T16:15:49.260Z,38.06
2022-08-11T16:16:50.946Z,38.01
2022-08-11T16:17:51.177Z,37.58
2022-08-11T16:18:52.096Z,38.13
2022-08-11T16:19:51.852Z,37.82
2022-08-11T16:20:53.328Z,37.90
2022-08-11T16:21:52.498Z,38.05
2022-08-11T16:23:01.246Z,38.42
2022-08-11T16:23:53.066Z,37.85
2022-08-11T16:26:30.534Z,37.54
2022-08-11T16:27:02.413Z,37.49
2022-08-11T16:27:10.078Z,38.28
2022-08-11T16:27:56.754Z,38.04
2022-08-11T16:28:55.148Z,38.67
2022-08-11T16:29:56.316Z,38.26
2022-08-11T16:30:55.814Z,38.63
2022-08-11T16:31:57.657Z,38.71
2022-08-11T16:32:58.587Z,39.05
2022-08-11T16:33:58.363Z,37.29
2022-08-11T16:34:59.186Z,37.38
2022-08-11T16:35:59.576Z,37.80
2022-08-11T16:36:59.924Z,38.28
2022-08-11T16:38:00.302Z,38.13
2022-08-11T16:39:00.970Z,37.81
2022-08-11T16:39:14.619Z,37.97
2022-08-11T16:40:14.922Z,37.99
2022-08-11T16:41:14.873Z,37.76
2022-08-11T16:43:04.474Z,37.64
2022-08-11T16:43:15.900Z,37.58
2022-08-11T16:44:17.416Z,37.29
2022-08-11T16:45:20.961Z,37.35
2022-08-11T16:46:17.692Z,37.65
2022-08-11T16:47:18.363Z,37.51
2022-08-11T16:48:33.510Z,37.61
2022-08-11T16:49:19.623Z,37.85
2022-08-11T16:50:19.713Z,37.83
2022-08-11T16:51:21.069Z,37.19
2022-08-11T16:52:21.141Z,37.71
2022-08-11T16:53:20.826Z,37.55
2022-08-11T16:54:21.177Z,38.07
2022-08-11T16:55:52.420Z,37.79
2022-08-11T16:56:22.311Z,37.65
2022-08-11T16:57:22.860Z,37.73
2022-08-11T16:58:23.406Z,38.15
2022-08-11T16:59:25.067Z,38.37
2022-08-11T17:00:24.517Z,37.85
2022-08-11T17:01:24.650Z,38.17
2022-08-11T17:02:25.549Z,38.40
2022-08-11T17:03:26.105Z,38.59
2022-08-11T17:04:26.444Z,38.67
2022-08-11T17:05:26.722Z,38.94
2022-08-11T17:05:38.157Z,38.33
2022-08-11T17:06:38.308Z,38.29
2022-08-11T17:07:41.856Z,38.84
2022-08-11T17:08:38.836Z,39.11
2022-08-11T17:09:39.593Z,38.71
2022-08-11T17:10:53.754Z,38.98
2022-08-11T17:11:41.250Z,38.46
2022-08-11T17:12:42.382Z,38.73
2022-08-11T17:13:43.073Z,39.30
2022-08-11T17:14:42.938Z,39.05
2022-08-11T17:15:44.121Z,39.14
2022-08-11T17:16:44.071Z,38.95
2022-08-11T17:17:45.338Z,38.75
2022-08-11T17:18:45.366Z,38.75
2022-08-11T17:20:38.343Z,38.76
2022-08-11T17:20:45.809Z,38.93
2022-08-11T17:21:47.378Z,39.41
2022-08-11T17:22:47.226Z,38.68
2022-08-11T17:23:47.452Z,39.08
2022-08-11T17:24:47.716Z,39.15
2022-08-11T17:25:59.715Z,39.02
2022-08-11T17:26:48.031Z,38.75
2022-08-11T17:27:48.108Z,38.94
2022-08-11T17:29:26.414Z,38.46
2022-08-11T17:30:30.742Z,38.66
2022-08-11T17:31:27.506Z,38.82
2022-08-11T17:32:27.600Z,39.04
2022-08-11T17:33:28.558Z,38.78
2022-08-11T17:34:28.604Z,39.08
2022-08-11T17:35:30.255Z,39.14
2022-08-11T17:36:29.243Z,38.91
2022-08-11T17:37:29.413Z,39.04
2022-08-11T17:38:30.416Z,39.35
2022-08-11T17:39:32.162Z,39.00
2022-08-11T17:40:31.554Z,38.84
2022-08-11T17:41:33.463Z,39.48
2022-08-11T17:42:36.009Z,39.69
2022-08-11T17:43:33.583Z,39.61
2022-08-11T17:44:34.872Z,39.35
2022-08-11T17:45:34.932Z,39.41
2022-08-11T17:46:35.338Z,39.48
2022-08-11T17:47:36.433Z,39.44
2022-08-11T17:48:35.715Z,39.56
2022-08-11T17:49:36.639Z,39.67
2022-08-11T17:50:38.546Z,39.63
2022-08-11T17:51:39.335Z,39.97
2022-08-11T17:52:39.051Z,40.01
2022-08-11T17:53:39.892Z,40.25
2022-08-11T17:54:16.996Z,39.91
2022-08-11T17:54:49.885Z,39.85
2022-08-11T17:55:51.959Z,40.01
2022-08-11T17:56:50.832Z,40.21
2022-08-11T17:57:50.969Z,40.68
2022-08-11T17:58:52.903Z,41.15
2022-08-11T17:59:53.234Z,41.15
2022-08-11T18:00:51.924Z,41.34
2022-08-11T18:01:54.032Z,41.00
2022-08-11T18:02:52.949Z,40.51
2022-08-11T18:03:58.454Z,41.20
2022-08-11T18:04:54.240Z,40.79
2022-08-11T18:05:54.605Z,42.12
2022-08-11T18:06:55.269Z,42.26
2022-08-11T18:07:56.737Z,41.11
2022-08-11T18:08:56.846Z,41.44
2022-08-11T18:09:55.859Z,41.46
2022-08-11T18:10:55.933Z,41.60
2022-08-11T18:12:06.861Z,41.98
2022-08-11T18:12:56.613Z,43.03
2022-08-11T18:13:57.465Z,41.06
2022-08-11T18:14:57.774Z,41.62
2022-08-11T18:15:58.236Z,42.08
2022-08-11T18:17:03.833Z,42.49
2022-08-11T18:17:59.260Z,42.28
2022-08-11T18:19:00.595Z,42.53
2022-08-11T18:19:09.306Z,42.41
2022-08-11T18:20:09.721Z,42.54
2022-08-11T18:21:10.870Z,42.42
2022-08-11T18:22:15.122Z,41.89
2022-08-11T18:23:11.179Z,42.31
2022-08-11T18:24:11.572Z,42.55
2022-08-11T18:25:12.746Z,42.99
2022-08-11T18:26:12.777Z,42.98
2022-08-11T18:27:13.740Z,43.03
2022-08-11T18:28:13.413Z,42.93
2022-08-11T18:29:13.838Z,43.10
2022-08-11T18:30:14.746Z,43.37
2022-08-11T18:31:16.328Z,43.29
2022-08-11T18:32:21.998Z,43.22
2022-08-11T18:33:44.937Z,44.12
2022-08-11T18:34:16.833Z,44.25
2022-08-11T18:35:16.996Z,44.08
2022-08-11T18:36:18.517Z,44.27
2022-08-11T18:37:20.210Z,44.25
2022-08-11T18:38:18.847Z,44.71
2022-08-11T18:39:19.951Z,44.86
2022-08-11T18:40:18.990Z,44.65
2022-08-11T18:41:19.140Z,44.68
2022-08-11T18:42:29.097Z,45.09
2022-08-11T18:43:23.814Z,45.38
2022-08-11T18:44:20.477Z,45.16
2022-08-11T18:45:20.756Z,46.48
2022-08-11T18:46:22.017Z,45.74
2022-08-11T18:47:21.307Z,46.22
2022-08-11T18:47:32.603Z,46.64
2022-08-11T18:48:34.190Z,46.66
2022-08-11T18:50:02.547Z,45.96
2022-08-11T18:50:39.537Z,47.12
2022-08-11T18:51:36.825Z,47.20
2022-08-11T18:52:34.409Z,47.29
2022-08-11T18:53:36.305Z,47.69
2022-08-11T18:54:36.292Z,47.63
2022-08-11T18:55:36.190Z,47.33
2022-08-11T18:56:36.731Z,47.82
2022-08-11T18:57:49.754Z,47.82
2022-08-11T18:58:38.171Z,47.93
2022-08-11T18:59:39.021Z,48.15
2022-08-11T19:00:40.294Z,48.46
2022-08-11T19:01:43.066Z,48.38
2022-08-11T19:02:49.161Z,48.04
2022-08-11T19:03:43.336Z,48.08
2022-08-11T19:04:42.163Z,47.95
2022-08-11T19:06:31.816Z,47.95
2022-08-11T19:06:43.072Z,48.15
2022-08-11T19:07:46.559Z,48.01
2022-08-11T19:08:44.250Z,48.52
2022-08-11T19:09:45.203Z,48.59
2022-08-11T19:10:53.190Z,49.04
2022-08-11T19:11:46.801Z,49.15
2022-08-11T19:12:47.825Z,49.29
2022-08-11T19:13:59.156Z,49.35
2022-08-11T19:14:47.941Z,49.30
2022-08-11T19:16:06.037Z,49.43
2022-08-11T19:17:47.125Z,49.69
2022-08-11T19:17:50.070Z,49.38
2022-08-11T19:18:52.992Z,49.56
2022-08-11T19:19:50.663Z,50.21
2022-08-11T19:20:53.999Z,49.66
2022-08-11T19:21:52.067Z,49.76
2022-08-11T19:22:52.042Z,49.85
2022-08-11T19:23:52.980Z,49.67
2022-08-11T19:24:53.870Z,49.14
2022-08-11T19:25:54.814Z,49.70
2022-08-11T19:26:55.704Z,49.27
2022-08-11T19:28:14.216Z,49.26
2022-08-11T19:30:09.079Z,49.36
2022-08-11T19:30:46.724Z,49.34
2022-08-11T19:31:52.847Z,49.60
2022-08-11T19:32:44.854Z,50.42
2022-08-11T19:34:03.012Z,50.67
2022-08-11T19:34:44.852Z,51.49
2022-08-11T19:37:20.715Z,51.61
2022-08-11T19:38:10.578Z,51.61
2022-08-11T19:39:08.047Z,51.25
2022-08-11T19:40:14.209Z,50.40
2022-08-11T19:41:12.929Z,50.33
2022-08-11T19:42:10.864Z,51.17
2022-08-11T19:43:23.579Z,51.00
2022-08-11T19:44:16.720Z,50.15
2022-08-11T19:45:23.249Z,50.65
2022-08-11T19:46:14.955Z,50.76
2022-08-11T19:47:17.541Z,50.92
2022-08-11T19:48:32.080Z,51.04
2022-08-11T19:49:13.477Z,50.77
2022-08-11T19:50:21.502Z,51.30
2022-08-11T19:51:15.116Z,51.16
2022-08-11T19:52:19.190Z,50.79
2022-08-11T19:53:17.669Z,50.79
2022-08-11T19:54:16.975Z,50.83
2022-08-11T19:55:19.207Z,50.88
2022-08-11T19:56:17.375Z,51.33
2022-08-11T19:57:17.697Z,51.13
2022-08-11T19:58:18.553Z,50.98
2022-08-11T19:59:23.072Z,51.33
2022-08-11T20:00:19.402Z,51.20
2022-08-11T20:01:19.519Z,51.36
2022-08-11T20:03:37.324Z,51.40
2022-08-11T20:06:19.726Z,51.53
2022-08-11T20:07:21.981Z,51.51
2022-08-11T20:08:20.017Z,51.35
2022-08-11T20:09:19.949Z,51.47
2022-08-11T20:10:23.344Z,51.79
2022-08-11T20:11:23.423Z,51.66
2022-08-11T20:12:24.130Z,51.25
2022-08-11T20:13:29.537Z,51.61
2022-08-11T20:14:22.880Z,51.85
2022-08-11T20:15:23.888Z,51.74
2022-08-11T20:16:24.956Z,52.69
2022-08-11T20:17:24.304Z,52.43
2022-08-11T20:18:27.348Z,52.22
2022-08-11T20:19:26.197Z,53.06
2022-08-11T20:20:25.348Z,51.77
2022-08-11T20:21:32.786Z,51.86
2022-08-11T20:22:26.429Z,53.75
2022-08-11T20:23:25.672Z,52.53
2022-08-11T20:24:26.625Z,52.58
2022-08-11T20:25:33.652Z,52.81
2022-08-11T20:26:31.272Z,52.72
2022-08-11T20:27:29.653Z,52.75
2022-08-11T20:28:33.651Z,52.22
2022-08-11T20:29:29.997Z,53.62
2022-08-11T20:30:30.162Z,53.91
2022-08-11T20:31:32.779Z,53.97
2022-08-11T20:32:31.137Z,52.86
2022-08-11T20:32:45.622Z,53.01
2022-08-11T20:33:44.054Z,53.03
2022-08-11T20:34:45.900Z,52.67
2022-08-11T20:36:20.860Z,53.25
2022-08-11T20:36:45.778Z,52.31
2022-08-11T20:37:51.127Z,54.00
2022-08-11T20:38:53.351Z,53.10
2022-08-11T20:39:47.087Z,53.04
2022-08-11T20:40:56.520Z,52.85
2022-08-11T20:43:09.076Z,53.40
2022-08-11T20:44:09.113Z,53.43
2022-08-11T20:45:07.494Z,53.36
2022-08-11T20:46:35.977Z,53.09
2022-08-11T20:47:59.419Z,53.04
2022-08-11T20:48:40.882Z,53.43
2022-08-11T20:49:45.932Z,53.01
2022-08-11T20:50:38.401Z,53.23
2022-08-11T20:51:40.404Z,54.09
2022-08-11T20:52:40.619Z,53.59
2022-08-11T20:53:42.490Z,53.13
2022-08-11T20:54:43.644Z,53.26
2022-08-11T20:55:52.271Z,54.10
2022-08-11T20:56:41.824Z,54.61
2022-08-11T20:58:00.027Z,53.82
2022-08-11T20:59:17.367Z,53.42
2022-08-11T20:59:52.790Z,53.08
2022-08-11T21:00:11.617Z,55.21
2022-08-11T21:01:20.427Z,55.29
2022-08-11T21:02:10.943Z,53.87
2022-08-11T21:03:11.767Z,53.76
2022-08-11T21:04:13.332Z,54.34
2022-08-11T21:05:19.334Z,54.33
2022-08-11T21:06:13.604Z,54.51
2022-08-11T21:07:22.789Z,54.14
2022-08-11T21:08:14.652Z,53.42
2022-08-11T21:09:19.738Z,53.41
2022-08-11T21:10:24.055Z,53.34
2022-08-11T21:12:17.044Z,56.06
2022-08-11T21:15:04.814Z,54.43
2022-08-11T21:16:01.360Z,54.45
2022-08-11T21:17:01.751Z,54.91
2022-08-11T21:18:06.939Z,54.91
2022-08-11T21:19:04.124Z,55.00
2022-08-11T21:20:10.781Z,56.86
2022-08-11T21:21:25.591Z,55.66
2022-08-11T21:22:07.722Z,55.09
2022-08-11T21:23:08.379Z,54.98
2022-08-11T21:24:06.220Z,55.70
2022-08-11T21:25:07.262Z,55.66
2022-08-11T21:26:06.934Z,55.38
2022-08-11T21:27:08.123Z,55.51
2022-08-11T21:27:24.754Z,55.43
2022-08-11T21:28:23.189Z,55.43
2022-08-11T21:29:24.298Z,56.19
2022-08-11T21:30:25.120Z,56.48
2022-08-11T21:31:26.102Z,57.20
2022-08-11T21:32:26.889Z,57.24
2022-08-11T21:33:28.581Z,57.54
2022-08-11T21:34:29.441Z,59.06
2022-08-11T21:35:28.858Z,59.42
2022-08-11T21:36:29.676Z,58.67
2022-08-11T21:37:30.973Z,56.61
2022-08-11T21:38:30.878Z,56.84
2022-08-11T21:39:31.373Z,57.73
2022-08-11T21:40:31.592Z,58.48
2022-08-11T21:41:32.431Z,58.25
2022-08-11T21:42:34.252Z,57.05
2022-08-11T21:43:33.429Z,57.83
2022-08-11T21:43:47.651Z,57.31
2022-08-11T21:44:47.827Z,57.33
2022-08-11T21:45:48.930Z,57.49
2022-08-11T21:46:48.694Z,57.03
2022-08-11T21:47:49.419Z,58.25
2022-08-11T21:48:49.497Z,58.99
2022-08-11T21:49:51.172Z,57.91
2022-08-11T21:50:50.883Z,57.06
2022-08-11T21:51:50.854Z,57.30
2022-08-11T21:52:51.675Z,58.20
2022-08-11T21:53:53.571Z,58.35
2022-08-11T21:54:55.019Z,57.70
2022-08-11T21:55:53.841Z,57.51
2022-08-11T21:56:55.311Z,57.64
2022-08-11T21:57:54.908Z,57.67
2022-08-11T21:58:55.563Z,59.23
2022-08-11T21:59:57.063Z,63.46
2022-08-11T22:00:56.893Z,64.51
2022-08-11T22:01:58.164Z,65.65
2022-08-11T22:02:57.864Z,65.28
2022-08-11T22:03:09.879Z,59.90
2022-08-11T22:04:10.971Z,59.80
2022-08-11T22:05:11.201Z,59.33
2022-08-11T22:06:11.583Z,62.89
2022-08-11T22:07:11.820Z,64.21
2022-08-11T22:08:12.361Z,64.81
2022-08-11T22:09:12.249Z,65.11
2022-08-11T22:10:41.539Z,61.88
2022-08-11T22:11:13.204Z,58.51
2022-08-11T22:12:29.504Z,58.50
2022-08-11T22:13:14.910Z,60.08
2022-08-11T22:14:15.781Z,61.37
2022-08-11T22:15:16.492Z,65.54
2022-08-11T22:16:16.532Z,61.84
2022-08-11T22:17:17.345Z,61.58
2022-08-11T22:18:18.165Z,60.11
2022-08-11T22:19:19.024Z,59.10
2022-08-11T22:19:29.515Z,58.47
2022-08-11T22:20:30.388Z,58.49
2022-08-11T22:22:01.276Z,59.02
2022-08-11T22:22:31.983Z,60.09
2022-08-11T22:23:35.317Z,60.37
2022-08-11T22:24:33.666Z,65.00
2022-08-11T22:25:38.740Z,63.48
2022-08-11T22:26:34.082Z,63.24
2022-08-11T22:27:34.665Z,65.31
2022-08-11T22:28:35.498Z,63.25
2022-08-11T22:29:49.162Z,63.53
2022-08-11T22:30:37.132Z,64.83
2022-08-11T22:31:37.598Z,63.87
2022-08-11T22:32:38.859Z,60.86
2022-08-11T22:33:41.411Z,62.18
2022-08-11T22:34:52.610Z,61.06
2022-08-11T22:35:40.708Z,61.46
2022-08-11T22:36:41.266Z,62.55
2022-08-11T22:37:42.659Z,62.78
2022-08-11T22:38:43.281Z,70.92
2022-08-11T22:38:51.914Z,70.82
2022-08-11T22:40:01.609Z,70.71
2022-08-11T22:40:53.275Z,65.14
2022-08-11T22:41:54.209Z,62.27
2022-08-11T22:42:54.920Z,64.86
2022-08-11T22:43:55.608Z,65.03
2022-08-11T22:44:56.652Z,64.87
2022-08-11T22:45:57.534Z,65.08
2022-08-11T22:46:57.617Z,64.62
2022-08-11T22:47:58.062Z,65.52
2022-08-11T22:48:58.856Z,66.17
2022-08-11T22:49:59.623Z,64.73
2022-08-11T22:50:58.674Z,64.34
2022-08-11T22:51:59.358Z,63.51
2022-08-11T22:53:00.999Z,66.88
2022-08-11T22:54:00.468Z,68.92
2022-08-11T22:55:01.751Z,65.46
2022-08-11T22:56:01.967Z,64.85
2022-08-11T22:57:01.999Z,65.94
2022-08-11T22:58:02.577Z,66.29
2022-08-11T22:59:03.207Z,66.81
2022-08-11T23:00:03.536Z,67.18
2022-08-11T23:00:12.694Z,67.79
2022-08-11T23:01:13.386Z,67.59
2022-08-11T23:02:14.279Z,67.00
2022-08-11T23:03:37.064Z,64.91
2022-08-11T23:04:15.377Z,67.51
2022-08-11T23:05:15.911Z,66.98
2022-08-11T23:06:16.970Z,67.32
2022-08-11T23:07:50.059Z,67.29
2022-08-11T23:08:16.751Z,66.19
2022-08-11T23:09:17.387Z,66.95
2022-08-11T23:10:18.758Z,66.40
2022-08-11T23:11:18.627Z,64.53
2022-08-11T23:12:19.291Z,65.36
2022-08-11T23:13:22.368Z,64.54
2022-08-11T23:14:20.442Z,64.94
2022-08-11T23:15:20.527Z,65.35
2022-08-11T23:16:22.185Z,64.66
2022-08-11T23:17:21.860Z,65.26
2022-08-11T23:18:22.622Z,64.49
2022-08-11T23:20:09.647Z,64.37
2022-08-11T23:20:36.266Z,64.51
2022-08-11T23:21:24.392Z,64.22
2022-08-11T23:22:36.926Z,65.62
2022-08-11T23:23:26.270Z,64.03
2022-08-11T23:24:26.837Z,64.32
2022-08-11T23:25:27.740Z,65.00
2022-08-11T23:26:28.633Z,64.46
2022-08-11T23:27:29.433Z,64.45
2022-08-11T23:28:30.195Z,63.84
2022-08-11T23:28:40.873Z,63.28
2022-08-11T23:29:41.695Z,63.32
2022-08-11T23:30:43.301Z,66.06
2022-08-11T23:31:51.286Z,66.62
2022-08-11T23:32:43.062Z,66.26
2022-08-11T23:33:43.144Z,66.55
2022-08-11T23:35:03.732Z,65.21
2022-08-11T23:35:53.811Z,64.76
2022-08-11T23:36:47.451Z,65.34
2022-08-11T23:37:44.873Z,66.06
2022-08-11T23:38:45.160Z,68.75
2022-08-11T23:39:45.307Z,67.41
2022-08-11T23:40:46.073Z,69.46
2022-08-11T23:41:46.087Z,70.37
2022-08-11T23:42:46.353Z,66.95
2022-08-11T23:43:47.027Z,68.78
2022-08-11T23:44:47.894Z,73.37
2022-08-11T23:45:49.044Z,74.01
2022-08-11T23:46:48.575Z,73.32
2022-08-11T23:47:51.042Z,76.22
2022-08-11T23:48:49.703Z,75.13
2022-08-11T23:49:50.511Z,75.14
2022-08-11T23:50:52.003Z,74.94
2022-08-11T23:51:52.621Z,74.62
2022-08-11T23:52:52.152Z,74.22
2022-08-11T23:53:52.264Z,72.84
2022-08-11T23:54:53.033Z,72.11
2022-08-11T23:55:53.940Z,71.14
2022-08-11T23:56:02.642Z,69.67
2022-08-11T23:57:03.322Z,69.66
2022-08-11T23:58:03.963Z,70.87
2022-08-11T23:59:04.317Z,70.62
